sensor_id;sensor_type;location;lat;lon;timestamp;pressure;altitude;pressure_sealevel;temperature;humidity
20971;BME280;10644;48.834;10.088;2022-12-29T00:01:56;96300.84;;;11.26;53.36
20971;BME280;10644;48.834;10.088;2022-12-29T00:04:23;96293.69;;;11.31;53.38
20971;BME280;10644;48.834;10.088;2022-12-29T00:06:52;96292.28;;;11.40;52.83
20971;BME280;10644;48.834;10.088;2022-12-29T00:09:26;96292.75;;;11.46;52.74
20971;BME280;10644;48.834;10.088;2022-12-29T00:12:07;96298.25;;;11.40;52.74
20971;BME280;10644;48.834;10.088;2022-12-29T00:14:34;96303.91;;;11.45;52.91
20971;BME280;10644;48.834;10.088;2022-12-29T00:17:17;96288.41;;;11.47;52.55
20971;BME280;10644;48.834;10.088;2022-12-29T00:19:50;96282.34;;;11.35;53.41
20971;BME280;10644;48.834;10.088;2022-12-29T00:22:40;96285.13;;;11.45;53.28
20971;BME280;10644;48.834;10.088;2022-12-29T00:25:36;96275.09;;;11.54;53.24
20971;BME280;10644;48.834;10.088;2022-12-29T00:28:21;96272.44;;;11.56;52.55
20971;BME280;10644;48.834;10.088;2022-12-29T00:31:09;96269.59;;;11.60;52.92
20971;BME280;10644;48.834;10.088;2022-12-29T00:33:55;96278.03;;;11.62;52.87
20971;BME280;10644;48.834;10.088;2022-12-29T00:36:42;96278.28;;;11.72;52.93
20971;BME280;10644;48.834;10.088;2022-12-29T00:39:17;96263.50;;;11.75;52.56
20971;BME280;10644;48.834;10.088;2022-12-29T00:42:09;96275.72;;;11.84;52.48
20971;BME280;10644;48.834;10.088;2022-12-29T00:44:54;96260.41;;;11.70;52.55
20971;BME280;10644;48.834;10.088;2022-12-29T00:47:19;96272.50;;;11.81;52.65
20971;BME280;10644;48.834;10.088;2022-12-29T00:49:44;96263.91;;;11.94;52.23
20971;BME280;10644;48.834;10.088;2022-12-29T00:52:11;96261.34;;;11.94;52.12
20971;BME280;10644;48.834;10.088;2022-12-29T00:54:44;96269.47;;;11.76;52.67
20971;BME280;10644;48.834;10.088;2022-12-29T00:57:25;96255.56;;;11.78;52.76
20971;BME280;10644;48.834;10.088;2022-12-29T00:59:50;96252.13;;;11.79;52.50
20971;BME280;10644;48.834;10.088;2022-12-29T01:02:26;96247.69;;;11.81;52.24
20971;BME280;10644;48.834;10.088;2022-12-29T01:04:55;96249.44;;;11.93;52.25
20971;BME280;10644;48.834;10.088;2022-12-29T01:07:20;96255.28;;;11.83;52.39
20971;BME280;10644;48.834;10.088;2022-12-29T01:09:54;96246.97;;;11.79;52.24
20971;BME280;10644;48.834;10.088;2022-12-29T01:12:34;96252.84;;;11.94;52.24
20971;BME280;10644;48.834;10.088;2022-12-29T01:15:08;96255.69;;;11.89;52.36
20971;BME280;10644;48.834;10.088;2022-12-29T01:17:34;96253.47;;;11.97;52.43
20971;BME280;10644;48.834;10.088;2022-12-29T01:20:01;96251.72;;;12.10;52.02
20971;BME280;10644;48.834;10.088;2022-12-29T01:22:28;96252.31;;;12.14;51.81
20971;BME280;10644;48.834;10.088;2022-12-29T01:24:58;96241.34;;;12.12;51.85
20971;BME280;10644;48.834;10.088;2022-12-29T01:27:23;96226.78;;;12.12;51.42
20971;BME280;10644;48.834;10.088;2022-12-29T01:29:48;96239.81;;;12.09;51.74
20971;BME280;10644;48.834;10.088;2022-12-29T01:32:25;96240.63;;;11.97;51.98
20971;BME280;10644;48.834;10.088;2022-12-29T01:34:55;96240.63;;;11.97;51.65
20971;BME280;10644;48.834;10.088;2022-12-29T01:37:22;96242.25;;;11.98;52.03
20971;BME280;10644;48.834;10.088;2022-12-29T01:39:52;96242.97;;;12.00;52.04
20971;BME280;10644;48.834;10.088;2022-12-29T01:42:19;96237.22;;;11.97;51.91
20971;BME280;10644;48.834;10.088;2022-12-29T01:44:52;96258.69;;;11.96;51.67
20971;BME280;10644;48.834;10.088;2022-12-29T01:47:57;96242.97;;;12.00;51.95
20971;BME280;10644;48.834;10.088;2022-12-29T01:50:32;96251.19;;;12.05;51.55
20971;BME280;10644;48.834;10.088;2022-12-29T01:53:22;96248.63;;;12.05;51.82
20971;BME280;10644;48.834;10.088;2022-12-29T01:56:02;96241.84;;;12.04;51.50
20971;BME280;10644;48.834;10.088;2022-12-29T01:58:41;96244.00;;;11.98;52.02
20971;BME280;10644;48.834;10.088;2022-12-29T02:01:10;96236.81;;;12.03;51.40
20971;BME280;10644;48.834;10.088;2022-12-29T02:03:51;96243.59;;;12.04;51.54
20971;BME280;10644;48.834;10.088;2022-12-29T02:06:26;96245.88;;;12.08;51.34
20971;BME280;10644;48.834;10.088;2022-12-29T02:08:56;96235.69;;;12.07;51.47
20971;BME280;10644;48.834;10.088;2022-12-29T02:11:24;96250.78;;;12.11;51.42
20971;BME280;10644;48.834;10.088;2022-12-29T02:13:51;96245.88;;;12.08;51.45
20971;BME280;10644;48.834;10.088;2022-12-29T02:16:46;96230.84;;;12.15;51.37
20971;BME280;10644;48.834;10.088;2022-12-29T02:22:05;96218.34;;;12.10;51.90
20971;BME280;10644;48.834;10.088;2022-12-29T02:27:53;96237.44;;;11.81;51.77
20971;BME280;10644;48.834;10.088;2022-12-29T02:36:00;96252.63;;;11.84;52.10
20971;BME280;10644;48.834;10.088;2022-12-29T02:41:03;96234.97;;;11.92;51.99
20971;BME280;10644;48.834;10.088;2022-12-29T02:46:53;96219.16;;;11.86;51.86
20971;BME280;10644;48.834;10.088;2022-12-29T02:49:56;96222.06;;;11.94;51.80
20971;BME280;10644;48.834;10.088;2022-12-29T02:52:49;96221.84;;;11.84;51.39
20971;BME280;10644;48.834;10.088;2022-12-29T02:55:16;96216.91;;;11.81;51.30
20971;BME280;10644;48.834;10.088;2022-12-29T02:58:09;96215.47;;;11.90;51.58
20971;BME280;10644;48.834;10.088;2022-12-29T03:00:55;96216.91;;;11.94;51.37
20971;BME280;10644;48.834;10.088;2022-12-29T03:09:35;96218.13;;;11.88;51.31
20971;BME280;10644;48.834;10.088;2022-12-29T03:12:25;96210.16;;;11.93;51.15
20971;BME280;10644;48.834;10.088;2022-12-29T03:15:28;96214.22;;;11.95;51.22
20971;BME280;10644;48.834;10.088;2022-12-29T03:18:22;96201.00;;;12.01;50.96
20971;BME280;10644;48.834;10.088;2022-12-29T03:21:03;96199.03;;;11.92;50.77
20971;BME280;10644;48.834;10.088;2022-12-29T03:23:34;96200.69;;;11.68;51.33
20971;BME280;10644;48.834;10.088;2022-12-29T03:26:04;96209.09;;;11.70;51.29
20971;BME280;10644;48.834;10.088;2022-12-29T03:28:38;96198.81;;;11.70;50.95
20971;BME280;10644;48.834;10.088;2022-12-29T03:31:06;96191.66;;;11.75;51.04
20971;BME280;10644;48.834;10.088;2022-12-29T03:33:34;96202.75;;;11.76;51.18
20971;BME280;10644;48.834;10.088;2022-12-29T03:36:04;96207.34;;;11.71;51.42
20971;BME280;10644;48.834;10.088;2022-12-29T03:38:59;96211.16;;;11.78;51.18
20971;BME280;10644;48.834;10.088;2022-12-29T03:41:32;96218.03;;;11.77;51.18
20971;BME280;10644;48.834;10.088;2022-12-29T03:44:00;96207.03;;;11.63;51.91
20971;BME280;10644;48.834;10.088;2022-12-29T03:46:28;96199.22;;;11.64;51.78
20971;BME280;10644;48.834;10.088;2022-12-29T03:48:55;96208.38;;;11.68;51.23
20971;BME280;10644;48.834;10.088;2022-12-29T03:51:35;96199.25;;;11.77;51.73
20971;BME280;10644;48.834;10.088;2022-12-29T03:54:03;96193.09;;;11.79;50.71
20971;BME280;10644;48.834;10.088;2022-12-29T03:56:29;96196.47;;;11.67;51.44
20971;BME280;10644;48.834;10.088;2022-12-29T03:58:54;96204.88;;;11.69;51.04
20971;BME280;10644;48.834;10.088;2022-12-29T04:01:20;96195.34;;;11.71;50.61
20971;BME280;10644;48.834;10.088;2022-12-29T04:03:50;96201.31;;;11.84;51.33
20971;BME280;10644;48.834;10.088;2022-12-29T04:06:17;96196.38;;;11.81;51.11
20971;BME280;10644;48.834;10.088;2022-12-29T04:08:43;96194.31;;;11.74;51.27
20971;BME280;10644;48.834;10.088;2022-12-29T04:11:08;96196.47;;;11.80;50.71
20971;BME280;10644;48.834;10.088;2022-12-29T04:13:43;96190.84;;;11.62;51.54
20971;BME280;10644;48.834;10.088;2022-12-29T04:16:10;96192.38;;;11.77;51.07
20971;BME280;10644;48.834;10.088;2022-12-29T04:18:36;96201.09;;;11.87;50.69
20971;BME280;10644;48.834;10.088;2022-12-29T04:21:01;96186.41;;;11.89;50.46
20971;BME280;10644;48.834;10.088;2022-12-29T04:23:29;96192.06;;;11.94;50.60
20971;BME280;10644;48.834;10.088;2022-12-29T04:26:10;96186.13;;;11.94;50.57
20971;BME280;10644;48.834;10.088;2022-12-29T04:28:36;96193.91;;;11.92;49.89
20971;BME280;10644;48.834;10.088;2022-12-29T04:31:04;96197.81;;;11.85;50.29
20971;BME280;10644;48.834;10.088;2022-12-29T04:33:30;96189.28;;;11.85;50.74
20971;BME280;10644;48.834;10.088;2022-12-29T04:35:56;96196.25;;;11.95;50.57
20971;BME280;10644;48.834;10.088;2022-12-29T04:38:23;96189.41;;;11.96;50.35
20971;BME280;10644;48.834;10.088;2022-12-29T04:40:49;96199.03;;;11.92;50.33
20971;BME280;10644;48.834;10.088;2022-12-29T04:43:15;96191.13;;;11.95;50.30
20971;BME280;10644;48.834;10.088;2022-12-29T04:45:44;96200.28;;;11.99;49.99
20971;BME280;10644;48.834;10.088;2022-12-29T04:48:11;96196.78;;;12.00;50.15
20971;BME280;10644;48.834;10.088;2022-12-29T04:50:49;96208.50;;;11.79;49.90
20971;BME280;10644;48.834;10.088;2022-12-29T04:53:16;96205.41;;;11.74;50.68
20971;BME280;10644;48.834;10.088;2022-12-29T04:55:55;96203.56;;;11.76;50.53
20971;BME280;10644;48.834;10.088;2022-12-29T04:58:27;96213.19;;;11.73;50.54
20971;BME280;10644;48.834;10.088;2022-12-29T05:00:57;96206.94;;;11.77;50.35
20971;BME280;10644;48.834;10.088;2022-12-29T05:03:23;96208.88;;;11.86;50.34
20971;BME280;10644;48.834;10.088;2022-12-29T05:05:56;96217.94;;;11.91;50.45
20971;BME280;10644;48.834;10.088;2022-12-29T05:08:29;96218.94;;;11.76;50.38
20971;BME280;10644;48.834;10.088;2022-12-29T05:11:00;96224.16;;;11.75;50.37
20971;BME280;10644;48.834;10.088;2022-12-29T05:13:31;96212.78;;;11.66;50.68
20971;BME280;10644;48.834;10.088;2022-12-29T05:15:58;96210.03;;;11.69;50.70
20971;BME280;10644;48.834;10.088;2022-12-29T05:18:27;96204.78;;;11.83;50.32
20971;BME280;10644;48.834;10.088;2022-12-29T05:20:55;96200.69;;;11.93;50.12
20971;BME280;10644;48.834;10.088;2022-12-29T05:23:23;96210.53;;;11.87;50.28
20971;BME280;10644;48.834;10.088;2022-12-29T05:25:56;96209.09;;;11.83;50.35
20971;BME280;10644;48.834;10.088;2022-12-29T05:28:22;96198.22;;;11.92;49.90
20971;BME280;10644;48.834;10.088;2022-12-29T05:30:53;96206.44;;;11.72;50.16
20971;BME280;10644;48.834;10.088;2022-12-29T05:33:22;96197.50;;;11.77;50.41
20971;BME280;10644;48.834;10.088;2022-12-29T05:35:53;96204.78;;;11.83;50.24
20971;BME280;10644;48.834;10.088;2022-12-29T05:38:21;96213.53;;;11.54;50.67
20971;BME280;10644;48.834;10.088;2022-12-29T05:40:51;96213.25;;;11.46;51.08
20971;BME280;10644;48.834;10.088;2022-12-29T05:43:19;96208.91;;;11.47;51.17
20971;BME280;10644;48.834;10.088;2022-12-29T05:45:48;96201.75;;;11.52;51.17
20971;BME280;10644;48.834;10.088;2022-12-29T05:48:14;96210.34;;;11.65;50.43
20971;BME280;10644;48.834;10.088;2022-12-29T05:50:47;96206.00;;;11.65;50.51
20971;BME280;10644;48.834;10.088;2022-12-29T05:53:12;96204.66;;;11.72;50.04
20971;BME280;10644;48.834;10.088;2022-12-29T05:55:50;96215.19;;;11.55;50.65
20971;BME280;10644;48.834;10.088;2022-12-29T05:58:23;96217.75;;;11.55;50.39
20971;BME280;10644;48.834;10.088;2022-12-29T06:00:53;96216.47;;;11.62;50.51
20971;BME280;10644;48.834;10.088;2022-12-29T06:03:18;96216.59;;;11.47;50.70
20971;BME280;10644;48.834;10.088;2022-12-29T06:05:46;96210.47;;;11.49;50.98
20971;BME280;10644;48.834;10.088;2022-12-29T06:08:11;96207.84;;;11.63;50.82
20971;BME280;10644;48.834;10.088;2022-12-29T06:10:42;96188.13;;;11.64;50.15
20971;BME280;10644;48.834;10.088;2022-12-29T06:13:08;96200.44;;;11.59;50.40
20971;BME280;10644;48.834;10.088;2022-12-29T06:15:36;96195.97;;;11.62;50.56
20971;BME280;10644;48.834;10.088;2022-12-29T06:18:16;96199.84;;;11.68;50.62
20971;BME280;10644;48.834;10.088;2022-12-29T06:20:42;96205.81;;;11.68;50.57
20971;BME280;10644;48.834;10.088;2022-12-29T06:23:07;96198.53;;;11.62;50.33
20971;BME280;10644;48.834;10.088;2022-12-29T06:25:36;96190.84;;;11.62;50.71
20971;BME280;10644;48.834;10.088;2022-12-29T06:28:07;96188.97;;;11.64;50.48
20971;BME280;10644;48.834;10.088;2022-12-29T06:30:54;96194.81;;;11.66;50.77
20971;BME280;10644;48.834;10.088;2022-12-29T06:33:21;96186.25;;;11.53;50.78
20971;BME280;10644;48.834;10.088;2022-12-29T06:35:48;96200.63;;;11.56;50.56
20971;BME280;10644;48.834;10.088;2022-12-29T06:38:14;96190.94;;;11.61;50.48
20971;BME280;10644;48.834;10.088;2022-12-29T06:40:45;96190.63;;;11.65;50.55
20971;BME280;10644;48.834;10.088;2022-12-29T06:43:21;96184.22;;;11.58;50.61
20971;BME280;10644;48.834;10.088;2022-12-29T06:45:49;96178.88;;;11.49;50.53
20971;BME280;10644;48.834;10.088;2022-12-29T06:48:14;96180.31;;;11.53;50.84
20971;BME280;10644;48.834;10.088;2022-12-29T06:50:40;96184.16;;;11.60;50.49
20971;BME280;10644;48.834;10.088;2022-12-29T06:53:08;96175.44;;;11.62;50.74
20971;BME280;10644;48.834;10.088;2022-12-29T06:55:51;96183.66;;;11.67;50.78
20971;BME280;10644;48.834;10.088;2022-12-29T06:58:18;96185.56;;;11.51;50.94
20971;BME280;10644;48.834;10.088;2022-12-29T07:00:47;96191.84;;;11.60;50.76
20971;BME280;10644;48.834;10.088;2022-12-29T07:03:15;96203.66;;;11.62;50.60
20971;BME280;10644;48.834;10.088;2022-12-29T07:05:51;96202.19;;;11.58;50.39
20971;BME280;10644;48.834;10.088;2022-12-29T07:08:17;96194.47;;;11.58;50.43
20971;BME280;10644;48.834;10.088;2022-12-29T07:10:51;96204.28;;;11.66;50.21
20971;BME280;10644;48.834;10.088;2022-12-29T07:13:25;96210.03;;;11.69;50.21
20971;BME280;10644;48.834;10.088;2022-12-29T07:15:50;96209.69;;;11.61;49.95
20971;BME280;10644;48.834;10.088;2022-12-29T07:18:16;96206.25;;;11.48;50.61
20971;BME280;10644;48.834;10.088;2022-12-29T07:20:41;96222.97;;;11.41;50.54
20971;BME280;10644;48.834;10.088;2022-12-29T07:23:16;96214.66;;;11.38;50.47
20971;BME280;10644;48.834;10.088;2022-12-29T07:25:44;96214.03;;;11.34;50.60
20971;BME280;10644;48.834;10.088;2022-12-29T07:28:15;96207.19;;;11.47;50.76
20971;BME280;10644;48.834;10.088;2022-12-29T07:30:41;96209.22;;;11.42;50.79
20971;BME280;10644;48.834;10.088;2022-12-29T07:33:08;96192.91;;;11.43;50.69
20971;BME280;10644;48.834;10.088;2022-12-29T07:35:41;96204.09;;;11.42;50.78
20971;BME280;10644;48.834;10.088;2022-12-29T07:38:10;96203.59;;;11.50;50.73
20971;BME280;10644;48.834;10.088;2022-12-29T07:40:47;96204.09;;;11.42;51.37
20971;BME280;10644;48.834;10.088;2022-12-29T07:43:12;96207.16;;;11.35;51.51
20971;BME280;10644;48.834;10.088;2022-12-29T07:45:38;96207.97;;;11.35;51.21
20971;BME280;10644;48.834;10.088;2022-12-29T07:48:05;96216.19;;;11.40;51.05
20971;BME280;10644;48.834;10.088;2022-12-29T07:50:36;96203.78;;;11.34;51.25
20971;BME280;10644;48.834;10.088;2022-12-29T07:53:04;96207.00;;;11.11;52.28
20971;BME280;10644;48.834;10.088;2022-12-29T07:55:43;96208.44;;;11.15;51.92
20971;BME280;10644;48.834;10.088;2022-12-29T07:58:10;96204.63;;;11.08;52.38
20971;BME280;10644;48.834;10.088;2022-12-29T08:00:36;96215.44;;;11.26;51.95
20971;BME280;10644;48.834;10.088;2022-12-29T08:03:03;96215.53;;;11.24;51.99
20971;BME280;10644;48.834;10.088;2022-12-29T08:05:31;96215.94;;;11.18;52.19
20971;BME280;10644;48.834;10.088;2022-12-29T08:08:03;96206.19;;;10.97;53.31
20971;BME280;10644;48.834;10.088;2022-12-29T08:10:37;96215.03;;;11.05;52.43
20971;BME280;10644;48.834;10.088;2022-12-29T08:13:02;96229.31;;;11.09;52.82
20971;BME280;10644;48.834;10.088;2022-12-29T08:15:27;96219.16;;;10.81;53.58
20971;BME280;10644;48.834;10.088;2022-12-29T08:18:13;96219.75;;;10.99;53.16
20971;BME280;10644;48.834;10.088;2022-12-29T08:20:45;96225.28;;;10.93;53.89
20971;BME280;10644;48.834;10.088;2022-12-29T08:23:14;96226.81;;;10.95;54.12
20971;BME280;10644;48.834;10.088;2022-12-29T08:25:45;96221.50;;;10.98;53.93
20971;BME280;10644;48.834;10.088;2022-12-29T08:28:23;96235.38;;;11.08;53.76
20971;BME280;10644;48.834;10.088;2022-12-29T08:30:50;96234.94;;;11.02;54.16
20971;BME280;10644;48.834;10.088;2022-12-29T08:33:17;96238.66;;;11.10;54.05
20971;BME280;10644;48.834;10.088;2022-12-29T08:35:42;96224.78;;;11.00;54.77
20971;BME280;10644;48.834;10.088;2022-12-29T08:38:10;96215.72;;;11.09;54.58
20971;BME280;10644;48.834;10.088;2022-12-29T08:40:44;96215.94;;;11.18;54.31
20971;BME280;10644;48.834;10.088;2022-12-29T08:43:10;96223.53;;;11.32;54.21
20971;BME280;10644;48.834;10.088;2022-12-29T08:45:36;96226.47;;;11.40;53.88
20971;BME280;10644;48.834;10.088;2022-12-29T08:48:03;96223.09;;;11.52;54.00
20971;BME280;10644;48.834;10.088;2022-12-29T08:50:30;96228.66;;;11.59;53.26
20971;BME280;10644;48.834;10.088;2022-12-29T08:53:02;96233.41;;;11.77;53.20
20971;BME280;10644;48.834;10.088;2022-12-29T08:55:36;96236.09;;;11.88;53.32
20971;BME280;10644;48.834;10.088;2022-12-29T08:58:10;96228.09;;;12.05;52.59
20971;BME280;10644;48.834;10.088;2022-12-29T09:00:41;96224.41;;;12.09;52.25
20971;BME280;10644;48.834;10.088;2022-12-29T09:03:17;96215.06;;;12.08;52.65
20971;BME280;10644;48.834;10.088;2022-12-29T09:05:47;96214.47;;;12.05;52.77
20971;BME280;10644;48.834;10.088;2022-12-29T09:08:19;96235.19;;;12.14;52.74
20971;BME280;10644;48.834;10.088;2022-12-29T09:10:51;96226.38;;;12.18;53.09
20971;BME280;10644;48.834;10.088;2022-12-29T09:13:17;96231.69;;;12.15;53.31
20971;BME280;10644;48.834;10.088;2022-12-29T09:15:44;96221.53;;;12.01;53.25
20971;BME280;10644;48.834;10.088;2022-12-29T09:18:10;96219.78;;;12.14;52.95
20971;BME280;10644;48.834;10.088;2022-12-29T09:20:38;96219.47;;;12.19;53.10
20971;BME280;10644;48.834;10.088;2022-12-29T09:23:06;96213.81;;;12.26;53.15
20971;BME280;10644;48.834;10.088;2022-12-29T09:25:34;96221.38;;;12.40;53.06
20971;BME280;10644;48.834;10.088;2022-12-29T09:28:13;96232.16;;;12.45;52.83
20971;BME280;10644;48.834;10.088;2022-12-29T09:30:38;96219.31;;;12.45;53.24
20971;BME280;10644;48.834;10.088;2022-12-29T09:33:11;96219.13;;;12.48;53.13
20971;BME280;10644;48.834;10.088;2022-12-29T09:35:56;96221.78;;;12.59;53.40
20971;BME280;10644;48.834;10.088;2022-12-29T09:38:31;96235.72;;;12.68;52.84
20971;BME280;10644;48.834;10.088;2022-12-29T09:41:26;96242.50;;;12.81;53.02
20971;BME280;10644;48.834;10.088;2022-12-29T09:46:47;96222.09;;;12.91;52.67
20971;BME280;10644;48.834;10.088;2022-12-29T09:49:16;96229.09;;;12.89;52.97
20971;BME280;10644;48.834;10.088;2022-12-29T09:52:21;96243.09;;;12.97;53.11
20971;BME280;10644;48.834;10.088;2022-12-29T09:55:04;96232.88;;;13.08;52.97
20971;BME280;10644;48.834;10.088;2022-12-29T09:57:45;96235.22;;;13.11;53.03
20971;BME280;10644;48.834;10.088;2022-12-29T10:00:40;96231.50;;;13.15;53.10
20971;BME280;10644;48.834;10.088;2022-12-29T10:03:14;96228.97;;;13.26;52.83
20971;BME280;10644;48.834;10.088;2022-12-29T10:08:46;96238.97;;;13.42;52.92
20971;BME280;10644;48.834;10.088;2022-12-29T10:17:25;96235.31;;;13.33;53.00
20971;BME280;10644;48.834;10.088;2022-12-29T10:25:26;96210.28;;;13.35;53.10
20971;BME280;10644;48.834;10.088;2022-12-29T10:28:04;96217.91;;;13.37;53.32
20971;BME280;10644;48.834;10.088;2022-12-29T10:30:34;96208.09;;;13.42;53.18
20971;BME280;10644;48.834;10.088;2022-12-29T10:33:04;96205.88;;;13.37;53.32
20971;BME280;10644;48.834;10.088;2022-12-29T10:35:34;96221.66;;;13.43;53.51
20971;BME280;10644;48.834;10.088;2022-12-29T10:41:15;96219.59;;;13.48;53.32
20971;BME280;10644;48.834;10.088;2022-12-29T10:43:51;96205.56;;;13.52;53.34
20971;BME280;10644;48.834;10.088;2022-12-29T10:46:37;96201.47;;;13.50;53.58
20971;BME280;10644;48.834;10.088;2022-12-29T10:49:08;96208.50;;;13.48;53.32
20971;BME280;10644;48.834;10.088;2022-12-29T10:51:41;96216.47;;;13.56;53.31
20971;BME280;10644;48.834;10.088;2022-12-29T10:54:38;96208.06;;;13.65;53.17
20971;BME280;10644;48.834;10.088;2022-12-29T10:57:20;96207.34;;;13.63;53.00
20971;BME280;10644;48.834;10.088;2022-12-29T10:59:47;96208.63;;;13.57;53.49
20971;BME280;10644;48.834;10.088;2022-12-29T11:02:38;96208.63;;;13.57;53.33
20971;BME280;10644;48.834;10.088;2022-12-29T11:05:53;96226.75;;;13.56;53.54
20971;BME280;10644;48.834;10.088;2022-12-29T11:08:01;96216.91;;;13.50;53.58
20971;BME280;10644;48.834;10.088;2022-12-29T11:13:26;96214.38;;;13.61;53.47
20971;BME280;10644;48.834;10.088;2022-12-29T11:15:52;96208.53;;;13.59;53.90
20971;BME280;10644;48.834;10.088;2022-12-29T11:18:26;96203.13;;;13.62;53.42
20971;BME280;10644;48.834;10.088;2022-12-29T11:21:00;96214.47;;;13.59;53.70
20971;BME280;10644;48.834;10.088;2022-12-29T11:23:36;96202.44;;;13.60;53.84
20971;BME280;10644;48.834;10.088;2022-12-29T11:28:40;96202.81;;;13.77;53.54
20971;BME280;10644;48.834;10.088;2022-12-29T11:31:08;96215.81;;;13.76;53.56
20971;BME280;10644;48.834;10.088;2022-12-29T11:33:39;96199.44;;;13.77;53.68
20971;BME280;10644;48.834;10.088;2022-12-29T11:36:13;96204.72;;;13.86;53.55
20971;BME280;10644;48.834;10.088;2022-12-29T11:38:49;96198.97;;;13.83;53.22
20971;BME280;10644;48.834;10.088;2022-12-29T11:41:29;96213.41;;;13.96;53.39
20971;BME280;10644;48.834;10.088;2022-12-29T11:44:05;96208.56;;;13.92;53.41
20971;BME280;10644;48.834;10.088;2022-12-29T11:46:37;96206.97;;;14.02;53.18
20971;BME280;10644;48.834;10.088;2022-12-29T11:49:13;96204.97;;;14.05;53.00
20971;BME280;10644;48.834;10.088;2022-12-29T11:51:46;96198.56;;;14.11;53.28
20971;BME280;10644;48.834;10.088;2022-12-29T11:54:27;96192.72;;;14.20;53.07
20971;BME280;10644;48.834;10.088;2022-12-29T11:56:54;96183.84;;;14.24;52.70
20971;BME280;10644;48.834;10.088;2022-12-29T12:01:52;96190.50;;;14.37;52.49
20971;BME280;10644;48.834;10.088;2022-12-29T12:04:34;96189.34;;;14.30;52.61
20971;BME280;10644;48.834;10.088;2022-12-29T12:09:35;96190.16;;;14.31;52.72
20971;BME280;10644;48.834;10.088;2022-12-29T12:12:07;96191.41;;;14.14;53.15
20971;BME280;10644;48.834;10.088;2022-12-29T12:14:40;96190.25;;;14.18;53.20
20971;BME280;10644;48.834;10.088;2022-12-29T12:17:27;96188.47;;;14.08;53.33
20971;BME280;10644;48.834;10.088;2022-12-29T12:20:16;96188.94;;;14.13;53.50
20971;BME280;10644;48.834;10.088;2022-12-29T12:26:10;96196.44;;;14.16;53.77
20971;BME280;10644;48.834;10.088;2022-12-29T12:31:46;96185.00;;;14.20;53.69
20971;BME280;10644;48.834;10.088;2022-12-29T12:34:29;96200.22;;;14.34;53.71
20971;BME280;10644;48.834;10.088;2022-12-29T12:37:33;96201.88;;;14.46;53.36
20971;BME280;10644;48.834;10.088;2022-12-29T13:00:20;96185.72;;;14.22;55.60
20971;BME280;10644;48.834;10.088;2022-12-29T13:05:50;96197.44;;;14.26;55.40
20971;BME280;10644;48.834;10.088;2022-12-29T13:22:09;96189.22;;;14.43;55.96
20971;BME280;10644;48.834;10.088;2022-12-29T13:25:08;96189.56;;;14.27;57.13
20971;BME280;10644;48.834;10.088;2022-12-29T13:30:50;96187.81;;;14.39;56.63
20971;BME280;10644;48.834;10.088;2022-12-29T13:36:23;96179.38;;;14.37;56.71
20971;BME280;10644;48.834;10.088;2022-12-29T13:42:07;96189.34;;;14.52;55.54
20971;BME280;10644;48.834;10.088;2022-12-29T13:44:37;96193.91;;;14.38;56.11
20971;BME280;10644;48.834;10.088;2022-12-29T13:49:44;96206.75;;;14.05;57.03
20971;BME280;10644;48.834;10.088;2022-12-29T13:55:51;96199.47;;;13.99;57.31
20971;BME280;10644;48.834;10.088;2022-12-29T13:58:38;96209.44;;;14.14;57.12
20971;BME280;10644;48.834;10.088;2022-12-29T14:03:49;96199.97;;;14.37;56.08
20971;BME280;10644;48.834;10.088;2022-12-29T14:06:32;96206.91;;;14.47;56.19
20971;BME280;10644;48.834;10.088;2022-12-29T14:09:05;96206.91;;;14.47;56.08
20971;BME280;10644;48.834;10.088;2022-12-29T14:11:40;96191.81;;;14.54;55.97
20971;BME280;10644;48.834;10.088;2022-12-29T14:14:22;96195.75;;;14.47;55.40
20971;BME280;10644;48.834;10.088;2022-12-29T14:16:51;96188.50;;;14.19;56.48
20971;BME280;10644;48.834;10.088;2022-12-29T14:19:28;96187.94;;;14.26;56.18
20971;BME280;10644;48.834;10.088;2022-12-29T14:21:58;96182.19;;;14.45;56.09
20971;BME280;10644;48.834;10.088;2022-12-29T14:37:26;96182.66;;;14.61;55.10
20971;BME280;10644;48.834;10.088;2022-12-29T14:42:32;96184.75;;;14.56;55.06
20971;BME280;10644;48.834;10.088;2022-12-29T14:47:37;96191.44;;;14.25;56.03
20971;BME280;10644;48.834;10.088;2022-12-29T14:58:31;96191.91;;;14.41;55.26
20971;BME280;10644;48.834;10.088;2022-12-29T15:01:03;96180.41;;;14.56;54.77
20971;BME280;10644;48.834;10.088;2022-12-29T15:03:32;96192.69;;;14.64;54.53
20971;BME280;10644;48.834;10.088;2022-12-29T15:06:09;96189.81;;;14.57;54.52
20971;BME280;10644;48.834;10.088;2022-12-29T15:08:56;96193.75;;;14.61;54.68
20971;BME280;10644;48.834;10.088;2022-12-29T15:16:49;96187.53;;;14.64;54.36
20971;BME280;10644;48.834;10.088;2022-12-29T15:19:22;96180.25;;;14.80;54.12
20971;BME280;10644;48.834;10.088;2022-12-29T15:21:49;96184.63;;;14.68;54.29
20971;BME280;10644;48.834;10.088;2022-12-29T15:24:16;96181.94;;;14.59;54.27
20971;BME280;10644;48.834;10.088;2022-12-29T15:26:49;96177.38;;;14.62;54.25
20971;BME280;10644;48.834;10.088;2022-12-29T15:29:47;96177.69;;;14.80;53.68
20971;BME280;10644;48.834;10.088;2022-12-29T15:32:19;96181.78;;;14.82;53.44
20971;BME280;10644;48.834;10.088;2022-12-29T15:34:56;96189.13;;;14.87;53.51
20971;BME280;10644;48.834;10.088;2022-12-29T15:37:27;96186.53;;;14.98;53.16
20971;BME280;10644;48.834;10.088;2022-12-29T15:39:55;96193.41;;;14.77;53.14
20971;BME280;10644;48.834;10.088;2022-12-29T15:42:56;96194.94;;;14.68;53.61
20971;BME280;10644;48.834;10.088;2022-12-29T15:45:19;96186.94;;;14.82;53.27
20971;BME280;10644;48.834;10.088;2022-12-29T15:47:49;96194.00;;;14.69;53.37
20971;BME280;10644;48.834;10.088;2022-12-29T15:50:25;96201.16;;;14.66;53.06